sensor_id;sensor_type;location;lat;lon;timestamp;pressure;altitude;pressure_sealevel;temperature;humidity
10897;BME280;5501;51.176;6.470;2024-02-23T00:02:33;98429.78;;;9.41;76.64
10897;BME280;5501;51.176;6.470;2024-02-23T00:07:35;98431.38;;;9.59;74.38
10897;BME280;5501;51.176;6.470;2024-02-23T00:12:36;98443.13;;;9.69;72.26
10897;BME280;5501;51.176;6.470;2024-02-23T00:17:38;98450.66;;;9.47;72.54
10897;BME280;5501;51.176;6.470;2024-02-23T00:22:40;98449.88;;;9.45;72.72
10897;BME280;5501;51.176;6.470;2024-02-23T00:27:42;98461.41;;;9.30;74.05
10897;BME280;5501;51.176;6.470;2024-02-23T00:32:43;98463.84;;;9.19;74.72
10897;BME280;5501;51.176;6.470;2024-02-23T00:37:45;98471.66;;;9.36;73.38
10897;BME280;5501;51.176;6.470;2024-02-23T00:42:46;98470.50;;;9.26;74.22
10897;BME280;5501;51.176;6.470;2024-02-23T00:47:48;98480.56;;;9.35;75.16
10897;BME280;5501;51.176;6.470;2024-02-23T00:52:49;98484.06;;;9.06;76.25
10897;BME280;5501;51.176;6.470;2024-02-23T00:57:51;98477.34;;;9.15;75.95
10897;BME280;5501;51.176;6.470;2024-02-23T01:02:52;98508.31;;;9.14;75.73
10897;BME280;5501;51.176;6.470;2024-02-23T01:07:53;98512.03;;;9.41;73.08
10897;BME280;5501;51.176;6.470;2024-02-23T01:12:55;98517.25;;;8.82;75.37
10897;BME280;5501;51.176;6.470;2024-02-23T01:17:57;98527.25;;;8.93;74.16
10897;BME280;5501;51.176;6.470;2024-02-23T01:22:58;98524.16;;;9.16;73.17
10897;BME280;5501;51.176;6.470;2024-02-23T01:28:00;98531.19;;;9.01;75.20
10897;BME280;5501;51.176;6.470;2024-02-23T01:33:01;98541.44;;;9.07;74.90
10897;BME280;5501;51.176;6.470;2024-02-23T01:38:04;98546.97;;;9.03;75.55
10897;BME280;5501;51.176;6.470;2024-02-23T01:43:06;98556.56;;;8.74;76.64
10897;BME280;5501;51.176;6.470;2024-02-23T01:48:07;98551.00;;;8.79;75.82
10897;BME280;5501;51.176;6.470;2024-02-23T01:53:10;98562.28;;;8.82;74.62
10897;BME280;5501;51.176;6.470;2024-02-23T01:58:13;98560.56;;;9.12;74.19
10897;BME280;5501;51.176;6.470;2024-02-23T02:03:16;98560.41;;;9.00;74.29
10897;BME280;5501;51.176;6.470;2024-02-23T02:08:17;98573.84;;;8.81;75.13
10897;BME280;5501;51.176;6.470;2024-02-23T02:13:19;98567.31;;;8.71;74.88
10897;BME280;5501;51.176;6.470;2024-02-23T02:18:20;98587.16;;;8.64;75.47
10897;BME280;5501;51.176;6.470;2024-02-23T02:23:21;98589.94;;;9.09;73.17
10897;BME280;5501;51.176;6.470;2024-02-23T02:28:24;98582.72;;;9.11;71.86
10897;BME280;5501;51.176;6.470;2024-02-23T02:33:25;98576.50;;;8.81;72.44
10897;BME280;5501;51.176;6.470;2024-02-23T02:38:27;98588.84;;;8.65;73.10
10897;BME280;5501;51.176;6.470;2024-02-23T02:43:28;98592.47;;;8.95;72.55
10897;BME280;5501;51.176;6.470;2024-02-23T02:48:30;98596.13;;;8.77;73.41
10897;BME280;5501;51.176;6.470;2024-02-23T02:53:31;98597.84;;;8.94;72.39
10897;BME280;5501;51.176;6.470;2024-02-23T02:58:33;98607.19;;;8.85;72.44
10897;BME280;5501;51.176;6.470;2024-02-23T03:03:34;98603.34;;;8.58;73.89
10897;BME280;5501;51.176;6.470;2024-02-23T03:08:36;98608.16;;;8.67;73.12
10897;BME280;5501;51.176;6.470;2024-02-23T03:13:37;98599.97;;;8.87;71.19
10897;BME280;5501;51.176;6.470;2024-02-23T03:18:39;98616.44;;;9.09;70.85
10897;BME280;5501;51.176;6.470;2024-02-23T03:23:41;98612.69;;;9.13;71.33
10897;BME280;5501;51.176;6.470;2024-02-23T03:28:42;98612.31;;;9.19;69.49
10897;BME280;5501;51.176;6.470;2024-02-23T03:33:44;98605.91;;;9.08;70.59
10897;BME280;5501;51.176;6.470;2024-02-23T03:38:47;98619.94;;;8.62;71.67
10897;BME280;5501;51.176;6.470;2024-02-23T03:43:48;98620.53;;;8.99;70.88
10897;BME280;5501;51.176;6.470;2024-02-23T03:48:50;98627.56;;;9.16;69.68
10897;BME280;5501;51.176;6.470;2024-02-23T03:53:53;98621.75;;;9.25;69.21
10897;BME280;5501;51.176;6.470;2024-02-23T03:58:54;98617.28;;;9.10;68.76
10897;BME280;5501;51.176;6.470;2024-02-23T04:03:56;98637.72;;;9.08;69.37
10897;BME280;5501;51.176;6.470;2024-02-23T04:08:57;98651.16;;;9.20;68.40
10897;BME280;5501;51.176;6.470;2024-02-23T04:13:59;98650.13;;;9.07;68.92
10897;BME280;5501;51.176;6.470;2024-02-23T04:19:02;98655.03;;;9.30;67.99
10897;BME280;5501;51.176;6.470;2024-02-23T04:24:03;98648.97;;;9.44;67.35
10897;BME280;5501;51.176;6.470;2024-02-23T04:29:05;98646.63;;;9.22;68.31
10897;BME280;5501;51.176;6.470;2024-02-23T04:34:06;98659.47;;;9.14;68.50
10897;BME280;5501;51.176;6.470;2024-02-23T04:39:08;98668.81;;;9.21;68.78
10897;BME280;5501;51.176;6.470;2024-02-23T04:44:09;98671.47;;;9.04;69.38
10897;BME280;5501;51.176;6.470;2024-02-23T04:49:11;98667.06;;;9.20;68.65
10897;BME280;5501;51.176;6.470;2024-02-23T04:54:13;98647.59;;;9.37;68.40
10897;BME280;5501;51.176;6.470;2024-02-23T04:59:14;98647.22;;;9.27;67.92
10897;BME280;5501;51.176;6.470;2024-02-23T05:04:16;98660.75;;;9.38;67.99
10897;BME280;5501;51.176;6.470;2024-02-23T05:09:18;98664.16;;;9.09;69.33
10897;BME280;5501;51.176;6.470;2024-02-23T05:14:19;98660.41;;;9.13;68.99
10897;BME280;5501;51.176;6.470;2024-02-23T05:19:21;98671.75;;;9.15;68.69
10897;BME280;5501;51.176;6.470;2024-02-23T05:24:23;98673.38;;;9.18;68.30
10897;BME280;5501;51.176;6.470;2024-02-23T05:29:24;98659.38;;;9.16;69.06
10897;BME280;5501;51.176;6.470;2024-02-23T05:34:26;98655.53;;;9.52;66.25
10897;BME280;5501;51.176;6.470;2024-02-23T05:39:27;98656.53;;;9.65;65.52
10897;BME280;5501;51.176;6.470;2024-02-23T05:44:30;98661.34;;;9.43;66.10
10897;BME280;5501;51.176;6.470;2024-02-23T05:49:32;98660.72;;;9.69;64.83
10897;BME280;5501;51.176;6.470;2024-02-23T05:54:33;98656.81;;;9.45;66.08
10897;BME280;5501;51.176;6.470;2024-02-23T05:59:34;98656.81;;;9.45;65.65
10897;BME280;5501;51.176;6.470;2024-02-23T06:04:36;98657.59;;;9.47;65.40
10897;BME280;5501;51.176;6.470;2024-02-23T06:09:38;98663.47;;;9.52;65.06
10897;BME280;5501;51.176;6.470;2024-02-23T06:14:39;98671.34;;;9.69;67.09
10897;BME280;5501;51.176;6.470;2024-02-23T06:19:41;98658.19;;;9.52;65.04
10897;BME280;5501;51.176;6.470;2024-02-23T06:24:43;98663.66;;;9.49;65.36
10897;BME280;5501;51.176;6.470;2024-02-23T06:29:44;98653.41;;;9.43;65.12
10897;BME280;5501;51.176;6.470;2024-02-23T06:34:45;98649.53;;;9.64;65.62
10897;BME280;5501;51.176;6.470;2024-02-23T06:39:47;98664.50;;;9.19;66.65
10897;BME280;5501;51.176;6.470;2024-02-23T06:44:55;98664.06;;;9.88;64.29
10897;BME280;5501;51.176;6.470;2024-02-23T06:49:56;98667.34;;;9.47;66.07
10897;BME280;5501;51.176;6.470;2024-02-23T06:54:58;98667.97;;;9.52;65.75
10897;BME280;5501;51.176;6.470;2024-02-23T07:00:00;98670.59;;;9.52;65.33
10897;BME280;5501;51.176;6.470;2024-02-23T07:05:02;98685.91;;;9.62;64.32
10897;BME280;5501;51.176;6.470;2024-02-23T07:10:06;98681.31;;;9.50;65.64
10897;BME280;5501;51.176;6.470;2024-02-23T07:15:07;98682.47;;;9.76;63.67
10897;BME280;5501;51.176;6.470;2024-02-23T07:20:09;98679.75;;;9.62;64.92
10897;BME280;5501;51.176;6.470;2024-02-23T07:25:12;98686.06;;;9.75;64.48
10897;BME280;5501;51.176;6.470;2024-02-23T07:30:16;98686.91;;;10.06;62.36
10897;BME280;5501;51.176;6.470;2024-02-23T07:35:18;98693.66;;;10.12;61.74
10897;BME280;5501;51.176;6.470;2024-02-23T07:40:20;98693.50;;;10.44;61.06
10897;BME280;5501;51.176;6.470;2024-02-23T07:45:23;98699.06;;;10.10;62.13
10897;BME280;5501;51.176;6.470;2024-02-23T07:50:24;98701.63;;;10.27;61.91
10897;BME280;5501;51.176;6.470;2024-02-23T07:55:26;98685.88;;;9.93;63.96
10897;BME280;5501;51.176;6.470;2024-02-23T08:00:27;98680.03;;;10.02;63.60
10897;BME280;5501;51.176;6.470;2024-02-23T08:05:29;98681.09;;;10.15;62.99
10897;BME280;5501;51.176;6.470;2024-02-23T08:10:31;98698.88;;;10.13;63.43
10897;BME280;5501;51.176;6.470;2024-02-23T08:15:32;98685.88;;;10.38;62.88
10897;BME280;5501;51.176;6.470;2024-02-23T08:20:34;98696.59;;;10.37;62.49
10897;BME280;5501;51.176;6.470;2024-02-23T08:25:36;98688.34;;;10.27;62.38
10897;BME280;5501;51.176;6.470;2024-02-23T08:30:37;98697.59;;;10.50;62.04
10897;BME280;5501;51.176;6.470;2024-02-23T08:35:39;98700.69;;;9.97;64.19
10897;BME280;5501;51.176;6.470;2024-02-23T08:40:40;98713.97;;;9.82;66.11
10897;BME280;5501;51.176;6.470;2024-02-23T08:45:43;98709.66;;;10.26;64.01
10897;BME280;5501;51.176;6.470;2024-02-23T08:50:45;98702.59;;;10.40;62.71
10897;BME280;5501;51.176;6.470;2024-02-23T08:55:47;98702.66;;;10.69;61.96
10897;BME280;5501;51.176;6.470;2024-02-23T09:00:48;98704.13;;;11.16;59.79
10897;BME280;5501;51.176;6.470;2024-02-23T09:05:50;98689.28;;;11.26;58.90
10897;BME280;5501;51.176;6.470;2024-02-23T09:10:51;98691.50;;;11.06;59.00
10897;BME280;5501;51.176;6.470;2024-02-23T09:15:53;98683.41;;;10.79;59.13
10897;BME280;5501;51.176;6.470;2024-02-23T09:20:54;98686.75;;;11.11;59.30
10897;BME280;5501;51.176;6.470;2024-02-23T09:25:56;98689.03;;;11.17;58.27
10897;BME280;5501;51.176;6.470;2024-02-23T09:30:57;98696.44;;;11.26;58.51
10897;BME280;5501;51.176;6.470;2024-02-23T09:35:59;98702.47;;;11.56;57.10
10897;BME280;5501;51.176;6.470;2024-02-23T09:41:00;98698.69;;;11.46;57.04
10897;BME280;5501;51.176;6.470;2024-02-23T09:46:02;98698.41;;;11.22;56.80
10897;BME280;5501;51.176;6.470;2024-02-23T09:51:05;98716.00;;;11.11;56.44
10897;BME280;5501;51.176;6.470;2024-02-23T09:56:10;98706.88;;;11.15;56.86
10897;BME280;5501;51.176;6.470;2024-02-23T10:01:12;98696.44;;;11.26;55.42
10897;BME280;5501;51.176;6.470;2024-02-23T10:06:15;98705.63;;;11.48;54.92
10897;BME280;5501;51.176;6.470;2024-02-23T10:11:20;98704.16;;;11.57;54.89
10897;BME280;5501;51.176;6.470;2024-02-23T10:16:22;98716.38;;;11.33;55.74
10897;BME280;5501;51.176;6.470;2024-02-23T10:21:24;98716.38;;;11.33;55.90
10897;BME280;5501;51.176;6.470;2024-02-23T10:26:27;98713.72;;;11.47;55.53
10897;BME280;5501;51.176;6.470;2024-02-23T10:31:34;98723.56;;;11.73;54.10
10897;BME280;5501;51.176;6.470;2024-02-23T10:36:40;98723.56;;;11.59;54.16
10897;BME280;5501;51.176;6.470;2024-02-23T10:41:47;98719.97;;;11.32;55.22
10897;BME280;5501;51.176;6.470;2024-02-23T10:46:50;98726.47;;;11.42;55.08
10897;BME280;5501;51.176;6.470;2024-02-23T10:51:53;98733.66;;;11.40;54.97
10897;BME280;5501;51.176;6.470;2024-02-23T10:56:55;98737.66;;;11.61;55.11
10897;BME280;5501;51.176;6.470;2024-02-23T11:01:59;98733.28;;;11.74;55.48
10897;BME280;5501;51.176;6.470;2024-02-23T11:07:01;98731.28;;;11.63;55.08
10897;BME280;5501;51.176;6.470;2024-02-23T11:12:06;98727.88;;;12.02;55.37
10897;BME280;5501;51.176;6.470;2024-02-23T11:17:17;98733.88;;;12.05;54.72
10897;BME280;5501;51.176;6.470;2024-02-23T11:22:33;98733.09;;;11.35;56.60
10897;BME280;5501;51.176;6.470;2024-02-23T11:27:40;98739.00;;;11.82;55.37
10897;BME280;5501;51.176;6.470;2024-02-23T11:32:48;98740.78;;;11.53;55.10
10897;BME280;5501;51.176;6.470;2024-02-23T11:37:55;98744.66;;;11.90;54.85
10897;BME280;5501;51.176;6.470;2024-02-23T11:43:04;98739.50;;;11.60;54.21
10897;BME280;5501;51.176;6.470;2024-02-23T11:48:06;98738.94;;;11.96;53.32
10897;BME280;5501;51.176;6.470;2024-02-23T11:53:08;98737.75;;;11.73;54.49
10897;BME280;5501;51.176;6.470;2024-02-23T11:58:10;98736.59;;;11.77;54.05
10897;BME280;5501;51.176;6.470;2024-02-23T12:03:19;98737.94;;;11.70;55.40
10897;BME280;5501;51.176;6.470;2024-02-23T12:08:21;98733.34;;;11.86;54.94
10897;BME280;5501;51.176;6.470;2024-02-23T12:13:23;98731.09;;;11.66;56.55
10897;BME280;5501;51.176;6.470;2024-02-23T12:18:24;98729.25;;;11.81;56.52
10897;BME280;5501;51.176;6.470;2024-02-23T12:28:42;98723.97;;;12.07;55.39
10897;BME280;5501;51.176;6.470;2024-02-23T12:33:43;98726.97;;;12.42;54.31
10897;BME280;5501;51.176;6.470;2024-02-23T12:38:49;98723.56;;;12.40;53.95
10897;BME280;5501;51.176;6.470;2024-02-23T12:43:51;98729.78;;;12.53;54.25
10897;BME280;5501;51.176;6.470;2024-02-23T12:48:54;98731.94;;;12.73;53.48
10897;BME280;5501;51.176;6.470;2024-02-23T12:53:56;98728.06;;;12.52;54.54
10897;BME280;5501;51.176;6.470;2024-02-23T12:58:57;98729.44;;;12.45;53.88
10897;BME280;5501;51.176;6.470;2024-02-23T13:03:58;98724.19;;;12.43;52.91
10897;BME280;5501;51.176;6.470;2024-02-23T13:09:00;98733.09;;;12.30;52.96
10897;BME280;5501;51.176;6.470;2024-02-23T13:14:02;98731.47;;;12.54;51.71
10897;BME280;5501;51.176;6.470;2024-02-23T13:19:04;98738.16;;;12.86;50.04
10897;BME280;5501;51.176;6.470;2024-02-23T13:24:05;98746.47;;;12.94;50.75
10897;BME280;5501;51.176;6.470;2024-02-23T13:29:07;98744.56;;;12.83;50.96
10897;BME280;5501;51.176;6.470;2024-02-23T13:34:10;98746.69;;;12.91;51.29
10897;BME280;5501;51.176;6.470;2024-02-23T13:39:12;98748.19;;;12.95;50.68
10897;BME280;5501;51.176;6.470;2024-02-23T13:44:14;98738.22;;;12.98;50.16
10897;BME280;5501;51.176;6.470;2024-02-23T13:49:15;98740.66;;;13.39;49.59
10897;BME280;5501;51.176;6.470;2024-02-23T13:54:17;98734.94;;;12.81;49.82
10897;BME280;5501;51.176;6.470;2024-02-23T13:59:18;98734.03;;;12.43;51.14
10897;BME280;5501;51.176;6.470;2024-02-23T14:04:20;98722.84;;;12.63;50.77
10897;BME280;5501;51.176;6.470;2024-02-23T14:09:21;98726.03;;;13.07;50.38
10897;BME280;5501;51.176;6.470;2024-02-23T14:14:23;98730.91;;;12.88;50.92
10897;BME280;5501;51.176;6.470;2024-02-23T14:19:25;98728.66;;;12.69;52.00
10897;BME280;5501;51.176;6.470;2024-02-23T14:24:26;98730.44;;;12.69;51.95
10897;BME280;5501;51.176;6.470;2024-02-23T14:29:28;98736.63;;;13.21;52.06
10897;BME280;5501;51.176;6.470;2024-02-23T14:34:30;98736.50;;;12.71;51.47
10897;BME280;5501;51.176;6.470;2024-02-23T14:39:31;98759.94;;;12.92;50.78
10897;BME280;5501;51.176;6.470;2024-02-23T14:44:33;98765.03;;;11.77;67.93
10897;BME280;5501;51.176;6.470;2024-02-23T14:49:34;98746.84;;;11.83;68.64
10897;BME280;5501;51.176;6.470;2024-02-23T14:54:37;98733.00;;;12.05;66.62
10897;BME280;5501;51.176;6.470;2024-02-23T14:59:38;98754.31;;;12.05;67.71
10897;BME280;5501;51.176;6.470;2024-02-23T15:04:48;98766.53;;;11.81;72.06
10897;BME280;5501;51.176;6.470;2024-02-23T15:09:50;98762.81;;;11.97;73.33
10897;BME280;5501;51.176;6.470;2024-02-23T15:14:54;98769.44;;;11.78;73.60
10897;BME280;5501;51.176;6.470;2024-02-23T15:19:55;98772.44;;;11.86;76.96
10897;BME280;5501;51.176;6.470;2024-02-23T15:24:57;98778.94;;;11.82;73.76
10897;BME280;5501;51.176;6.470;2024-02-23T15:30:01;98765.50;;;12.24;71.94
10897;BME280;5501;51.176;6.470;2024-02-23T15:35:03;98772.25;;;12.29;70.52
10897;BME280;5501;51.176;6.470;2024-02-23T15:40:05;98773.28;;;12.00;71.26
10897;BME280;5501;51.176;6.470;2024-02-23T15:45:07;98773.38;;;11.99;69.52
10897;BME280;5501;51.176;6.470;2024-02-23T15:50:08;98759.25;;;12.11;70.86
10897;BME280;5501;51.176;6.470;2024-02-23T15:55:30;98753.69;;;12.01;70.26
10897;BME280;5501;51.176;6.470;2024-02-23T16:00:32;98762.41;;;12.03;70.01
10897;BME280;5501;51.176;6.470;2024-02-23T16:05:33;98768.97;;;12.12;67.91
10897;BME280;5501;51.176;6.470;2024-02-23T16:10:35;98769.50;;;12.17;67.67
10897;BME280;5501;51.176;6.470;2024-02-23T16:15:36;98774.91;;;11.89;69.54
10897;BME280;5501;51.176;6.470;2024-02-23T16:20:38;98765.16;;;12.16;69.89
10897;BME280;5501;51.176;6.470;2024-02-23T16:25:39;98769.50;;;12.17;67.59
10897;BME280;5501;51.176;6.470;2024-02-23T16:30:41;98776.16;;;12.24;68.42
10897;BME280;5501;51.176;6.470;2024-02-23T16:35:44;98776.03;;;11.99;68.63
10897;BME280;5501;51.176;6.470;2024-02-23T16:40:46;98774.66;;;12.20;68.86
10897;BME280;5501;51.176;6.470;2024-02-23T16:45:47;98784.69;;;12.29;66.79
10897;BME280;5501;51.176;6.470;2024-02-23T16:50:48;98793.34;;;11.92;67.09
10897;BME280;5501;51.176;6.470;2024-02-23T16:55:50;98804.38;;;11.86;66.75
10897;BME280;5501;51.176;6.470;2024-02-23T17:00:52;98812.31;;;11.73;67.44
10897;BME280;5501;51.176;6.470;2024-02-23T17:05:56;98802.25;;;11.64;67.79
10897;BME280;5501;51.176;6.470;2024-02-23T17:10:57;98803.44;;;11.59;67.48
10897;BME280;5501;51.176;6.470;2024-02-23T17:15:59;98792.81;;;11.73;68.12
10897;BME280;5501;51.176;6.470;2024-02-23T17:21:01;98796.91;;;11.78;66.27
10897;BME280;5501;51.176;6.470;2024-02-23T17:26:02;98802.91;;;11.82;67.18
10897;BME280;5501;51.176;6.470;2024-02-23T17:31:06;98802.84;;;11.40;67.35
10897;BME280;5501;51.176;6.470;2024-02-23T17:36:07;98808.34;;;11.37;67.66
10897;BME280;5501;51.176;6.470;2024-02-23T17:41:09;98804.66;;;11.25;67.78
10897;BME280;5501;51.176;6.470;2024-02-23T17:46:10;98800.59;;;11.48;65.21
10897;BME280;5501;51.176;6.470;2024-02-23T17:51:13;98807.16;;;11.70;64.25
10897;BME280;5501;51.176;6.470;2024-02-23T17:56:14;98816.13;;;11.69;63.25
10897;BME280;5501;51.176;6.470;2024-02-23T18:01:16;98820.25;;;11.59;63.71
10897;BME280;5501;51.176;6.470;2024-02-23T18:06:18;98827.94;;;11.22;65.42
10897;BME280;5501;51.176;6.470;2024-02-23T18:11:20;98820.53;;;11.41;64.84
10897;BME280;5501;51.176;6.470;2024-02-23T18:16:22;98830.81;;;11.47;64.35
10897;BME280;5501;51.176;6.470;2024-02-23T18:21:24;98833.66;;;11.30;65.53
10897;BME280;5501;51.176;6.470;2024-02-23T18:26:25;98829.81;;;11.06;65.71
10897;BME280;5501;51.176;6.470;2024-02-23T18:31:27;98839.88;;;11.15;66.99
10897;BME280;5501;51.176;6.470;2024-02-23T18:36:28;98841.59;;;11.16;65.70
10897;BME280;5501;51.176;6.470;2024-02-23T18:41:30;98839.72;;;11.18;65.70
10897;BME280;5501;51.176;6.470;2024-02-23T18:46:31;98842.00;;;10.94;66.85
10897;BME280;5501;51.176;6.470;2024-02-23T18:51:33;98845.94;;;11.03;66.17
10897;BME280;5501;51.176;6.470;2024-02-23T18:56:34;98851.94;;;11.50;65.22
10897;BME280;5501;51.176;6.470;2024-02-23T19:01:36;98863.63;;;11.47;64.59
10897;BME280;5501;51.176;6.470;2024-02-23T19:06:38;98863.09;;;11.41;64.33
10897;BME280;5501;51.176;6.470;2024-02-23T19:11:39;98854.63;;;11.64;62.86
10897;BME280;5501;51.176;6.470;2024-02-23T19:16:41;98853.03;;;11.32;64.61
10897;BME280;5501;51.176;6.470;2024-02-23T19:21:44;98869.59;;;11.51;63.66
10897;BME280;5501;51.176;6.470;2024-02-23T19:26:46;98874.06;;;11.07;64.73
10897;BME280;5501;51.176;6.470;2024-02-23T19:31:49;98874.50;;;11.29;64.46
10897;BME280;5501;51.176;6.470;2024-02-23T19:36:50;98877.91;;;11.17;65.48
10897;BME280;5501;51.176;6.470;2024-02-23T19:41:55;98867.28;;;10.72;66.61
10897;BME280;5501;51.176;6.470;2024-02-23T19:46:56;98873.25;;;10.91;66.55
10897;BME280;5501;51.176;6.470;2024-02-23T19:51:58;98868.47;;;10.82;67.06
10897;BME280;5501;51.176;6.470;2024-02-23T19:56:59;98873.00;;;10.80;68.14
10897;BME280;5501;51.176;6.470;2024-02-23T20:02:01;98875.94;;;10.59;68.56
10897;BME280;5501;51.176;6.470;2024-02-23T20:07:02;98878.03;;;10.54;68.05
10897;BME280;5501;51.176;6.470;2024-02-23T20:12:10;98880.50;;;10.26;69.24
10897;BME280;5501;51.176;6.470;2024-02-23T20:17:13;98882.56;;;10.21;69.60
10897;BME280;5501;51.176;6.470;2024-02-23T20:22:14;98880.03;;;10.35;68.12
10897;BME280;5501;51.176;6.470;2024-02-23T20:27:20;98891.63;;;10.02;69.92
10897;BME280;5501;51.176;6.470;2024-02-23T20:32:21;98904.50;;;10.09;69.98
10897;BME280;5501;51.176;6.470;2024-02-23T20:37:30;98905.88;;;10.16;69.41
10897;BME280;5501;51.176;6.470;2024-02-23T20:42:33;98906.47;;;10.21;69.87
10897;BME280;5501;51.176;6.470;2024-02-23T20:47:35;98913.25;;;9.94;70.28
10897;BME280;5501;51.176;6.470;2024-02-23T20:52:36;98924.19;;;10.05;70.71
10897;BME280;5501;51.176;6.470;2024-02-23T20:57:38;98921.31;;;9.93;71.25
10897;BME280;5501;51.176;6.470;2024-02-23T21:02:40;98918.94;;;9.71;71.49
10897;BME280;5501;51.176;6.470;2024-02-23T21:07:42;98915.50;;;9.86;71.16
10897;BME280;5501;51.176;6.470;2024-02-23T21:12:46;98905.47;;;9.42;72.52
10897;BME280;5501;51.176;6.470;2024-02-23T21:17:47;98912.84;;;9.86;71.92
10897;BME280;5501;51.176;6.470;2024-02-23T21:22:50;98908.03;;;9.60;72.64
10897;BME280;5501;51.176;6.470;2024-02-23T21:27:51;98911.81;;;9.89;71.78
10897;BME280;5501;51.176;6.470;2024-02-23T21:32:53;98917.34;;;9.84;71.31
10897;BME280;5501;51.176;6.470;2024-02-23T21:37:55;98930.63;;;9.84;72.45
10897;BME280;5501;51.176;6.470;2024-02-23T21:42:56;98914.38;;;9.90;71.01
10897;BME280;5501;51.176;6.470;2024-02-23T21:47:58;98924.56;;;9.82;71.37
10897;BME280;5501;51.176;6.470;2024-02-23T21:52:59;98931.44;;;10.02;74.27
10897;BME280;5501;51.176;6.470;2024-02-23T21:58:01;98930.06;;;9.62;73.35
10897;BME280;5501;51.176;6.470;2024-02-23T22:03:03;98932.34;;;9.85;71.70
10897;BME280;5501;51.176;6.470;2024-02-23T22:08:06;98936.84;;;10.00;71.14
10897;BME280;5501;51.176;6.470;2024-02-23T22:13:08;98937.16;;;9.94;70.99
10897;BME280;5501;51.176;6.470;2024-02-23T22:18:09;98931.84;;;9.94;71.10
10897;BME280;5501;51.176;6.470;2024-02-23T22:23:11;98932.06;;;9.57;72.90
10897;BME280;5501;51.176;6.470;2024-02-23T22:28:12;98937.28;;;9.76;72.16
10897;BME280;5501;51.176;6.470;2024-02-23T22:33:14;98940.50;;;9.65;73.46
10897;BME280;5501;51.176;6.470;2024-02-23T22:38:16;98941.31;;;9.50;74.28
10897;BME280;5501;51.176;6.470;2024-02-23T22:43:18;98940.59;;;9.96;72.49
10897;BME280;5501;51.176;6.470;2024-02-23T22:48:19;98933.06;;;10.04;72.41
10897;BME280;5501;51.176;6.470;2024-02-23T22:53:21;98932.59;;;10.13;71.94
10897;BME280;5501;51.176;6.470;2024-02-23T22:58:22;98939.16;;;10.23;71.81
10897;BME280;5501;51.176;6.470;2024-02-23T23:03:24;98938.53;;;10.01;72.75
10897;BME280;5501;51.176;6.470;2024-02-23T23:08:25;98945.56;;;10.19;72.03
10897;BME280;5501;51.176;6.470;2024-02-23T23:13:28;98937.00;;;9.97;72.95
10897;BME280;5501;51.176;6.470;2024-02-23T23:18:29;98942.19;;;10.16;72.00
10897;BME280;5501;51.176;6.470;2024-02-23T23:23:31;98943.41;;;9.93;72.62
10897;BME280;5501;51.176;6.470;2024-02-23T23:28:32;98935.44;;;9.93;73.17
10897;BME280;5501;51.176;6.470;2024-02-23T23:33:34;98946.41;;;9.87;73.87
10897;BME280;5501;51.176;6.470;2024-02-23T23:38:36;98939.38;;;9.86;72.71
10897;BME280;5501;51.176;6.470;2024-02-23T23:43:38;98938.81;;;9.80;73.32
10897;BME280;5501;51.176;6.470;2024-02-23T23:48:40;98945.00;;;9.80;73.60
10897;BME280;5501;51.176;6.470;2024-02-23T23:53:41;98945.97;;;9.62;74.34
10897;BME280;5501;51.176;6.470;2024-02-23T23:58:43;98945.19;;;9.43;75.42
